sensor_id;sensor_type;location;lat;lon;timestamp;P1;durP1;ratioP1;P2;durP2;ratioP2
23302;SDS011;11820;48.738;9.092;2022-07-24T00:02:22;11.00;;;10.00;;
23302;SDS011;11820;48.738;9.092;2022-07-24T00:04:48;11.00;;;9.93;;
23302;SDS011;11820;48.738;9.092;2022-07-24T00:07:13;12.30;;;11.07;;
23302;SDS011;11820;48.738;9.092;2022-07-24T00:09:38;11.73;;;10.57;;
23302;SDS011;11820;48.738;9.092;2022-07-24T00:12:04;10.20;;;9.37;;
23302;SDS011;11820;48.738;9.092;2022-07-24T00:14:30;10.50;;;9.60;;
23302;SDS011;11820;48.738;9.092;2022-07-24T00:16:55;11.90;;;10.70;;
23302;SDS011;11820;48.738;9.092;2022-07-24T00:19:20;10.93;;;9.90;;
23302;SDS011;11820;48.738;9.092;2022-07-24T00:21:46;10.40;;;9.50;;
23302;SDS011;11820;48.738;9.092;2022-07-24T00:24:12;10.53;;;9.53;;
23302;SDS011;11820;48.738;9.092;2022-07-24T00:26:37;11.23;;;10.23;;
23302;SDS011;11820;48.738;9.092;2022-07-24T00:29:03;11.77;;;10.67;;
23302;SDS011;11820;48.738;9.092;2022-07-24T00:31:29;11.00;;;10.10;;
23302;SDS011;11820;48.738;9.092;2022-07-24T00:33:55;10.40;;;9.50;;
23302;SDS011;11820;48.738;9.092;2022-07-24T00:36:20;11.30;;;10.27;;
23302;SDS011;11820;48.738;9.092;2022-07-24T00:38:45;11.00;;;9.90;;
23302;SDS011;11820;48.738;9.092;2022-07-24T00:41:11;11.57;;;10.47;;
23302;SDS011;11820;48.738;9.092;2022-07-24T00:46:40;13.20;;;10.13;;
23302;SDS011;11820;48.738;9.092;2022-07-24T00:49:11;10.17;;;9.27;;
23302;SDS011;11820;48.738;9.092;2022-07-24T00:51:39;10.27;;;9.47;;
23302;SDS011;11820;48.738;9.092;2022-07-24T00:54:06;10.97;;;10.00;;
23302;SDS011;11820;48.738;9.092;2022-07-24T00:56:33;9.87;;;8.97;;
23302;SDS011;11820;48.738;9.092;2022-07-24T00:58:59;11.50;;;10.40;;
23302;SDS011;11820;48.738;9.092;2022-07-24T01:01:25;10.33;;;9.50;;
23302;SDS011;11820;48.738;9.092;2022-07-24T01:03:50;11.23;;;10.30;;
23302;SDS011;11820;48.738;9.092;2022-07-24T01:06:15;10.63;;;9.63;;
23302;SDS011;11820;48.738;9.092;2022-07-24T01:08:41;10.20;;;9.30;;
23302;SDS011;11820;48.738;9.092;2022-07-24T01:11:10;9.10;;;8.40;;
23302;SDS011;11820;48.738;9.092;2022-07-24T01:13:36;10.77;;;9.87;;
23302;SDS011;11820;48.738;9.092;2022-07-24T01:16:02;11.90;;;10.03;;
23302;SDS011;11820;48.738;9.092;2022-07-24T01:18:27;10.67;;;9.50;;
23302;SDS011;11820;48.738;9.092;2022-07-24T01:20:53;11.07;;;9.97;;
23302;SDS011;11820;48.738;9.092;2022-07-24T01:23:20;10.10;;;9.30;;
23302;SDS011;11820;48.738;9.092;2022-07-24T01:25:45;9.83;;;9.03;;
23302;SDS011;11820;48.738;9.092;2022-07-24T01:28:11;10.67;;;9.77;;
23302;SDS011;11820;48.738;9.092;2022-07-24T01:30:37;10.60;;;9.60;;
23302;SDS011;11820;48.738;9.092;2022-07-24T01:33:02;11.23;;;9.50;;
23302;SDS011;11820;48.738;9.092;2022-07-24T01:35:27;10.20;;;9.40;;
23302;SDS011;11820;48.738;9.092;2022-07-24T01:37:53;11.20;;;10.03;;
23302;SDS011;11820;48.738;9.092;2022-07-24T01:40:19;10.17;;;9.20;;
23302;SDS011;11820;48.738;9.092;2022-07-24T01:42:45;9.93;;;9.03;;
23302;SDS011;11820;48.738;9.092;2022-07-24T01:45:11;10.87;;;9.90;;
23302;SDS011;11820;48.738;9.092;2022-07-24T01:47:36;11.30;;;10.20;;
23302;SDS011;11820;48.738;9.092;2022-07-24T01:50:02;10.80;;;9.70;;
23302;SDS011;11820;48.738;9.092;2022-07-24T01:52:28;11.17;;;10.27;;
23302;SDS011;11820;48.738;9.092;2022-07-24T01:54:53;9.57;;;8.73;;
23302;SDS011;11820;48.738;9.092;2022-07-24T01:57:18;10.50;;;9.60;;
23302;SDS011;11820;48.738;9.092;2022-07-24T01:59:44;10.47;;;9.47;;
23302;SDS011;11820;48.738;9.092;2022-07-24T02:02:10;9.30;;;8.50;;
23302;SDS011;11820;48.738;9.092;2022-07-24T02:04:35;10.10;;;9.30;;
23302;SDS011;11820;48.738;9.092;2022-07-24T02:07:01;11.00;;;10.00;;
23302;SDS011;11820;48.738;9.092;2022-07-24T02:09:26;9.90;;;9.00;;
23302;SDS011;11820;48.738;9.092;2022-07-24T02:11:52;9.40;;;8.60;;
23302;SDS011;11820;48.738;9.092;2022-07-24T02:14:17;9.77;;;8.77;;
23302;SDS011;11820;48.738;9.092;2022-07-24T02:16:43;10.90;;;10.00;;
23302;SDS011;11820;48.738;9.092;2022-07-24T02:19:08;10.57;;;9.67;;
23302;SDS011;11820;48.738;9.092;2022-07-24T02:21:34;11.67;;;10.57;;
23302;SDS011;11820;48.738;9.092;2022-07-24T02:23:59;10.83;;;9.73;;
23302;SDS011;11820;48.738;9.092;2022-07-24T02:26:25;11.10;;;10.10;;
23302;SDS011;11820;48.738;9.092;2022-07-24T02:28:50;10.73;;;9.73;;
23302;SDS011;11820;48.738;9.092;2022-07-24T02:31:15;10.23;;;9.37;;
23302;SDS011;11820;48.738;9.092;2022-07-24T02:33:41;9.90;;;9.10;;
23302;SDS011;11820;48.738;9.092;2022-07-24T02:36:07;9.90;;;9.03;;
23302;SDS011;11820;48.738;9.092;2022-07-24T02:38:32;9.90;;;9.10;;
23302;SDS011;11820;48.738;9.092;2022-07-24T02:40:58;9.97;;;9.07;;
23302;SDS011;11820;48.738;9.092;2022-07-24T02:43:23;9.93;;;9.07;;
23302;SDS011;11820;48.738;9.092;2022-07-24T02:45:48;9.33;;;8.53;;
23302;SDS011;11820;48.738;9.092;2022-07-24T02:48:14;10.43;;;9.43;;
23302;SDS011;11820;48.738;9.092;2022-07-24T02:50:39;9.40;;;8.60;;
23302;SDS011;11820;48.738;9.092;2022-07-24T02:53:05;9.13;;;8.43;;
23302;SDS011;11820;48.738;9.092;2022-07-24T02:55:31;9.77;;;8.77;;
23302;SDS011;11820;48.738;9.092;2022-07-24T02:57:56;9.60;;;8.77;;
23302;SDS011;11820;48.738;9.092;2022-07-24T03:00:22;9.13;;;8.33;;
23302;SDS011;11820;48.738;9.092;2022-07-24T03:02:48;9.20;;;8.40;;
23302;SDS011;11820;48.738;9.092;2022-07-24T03:05:14;9.50;;;8.60;;
23302;SDS011;11820;48.738;9.092;2022-07-24T03:07:39;9.63;;;8.73;;
23302;SDS011;11820;48.738;9.092;2022-07-24T03:10:06;9.07;;;8.37;;
23302;SDS011;11820;48.738;9.092;2022-07-24T03:12:33;9.30;;;8.60;;
23302;SDS011;11820;48.738;9.092;2022-07-24T03:14:59;12.47;;;11.27;;
23302;SDS011;11820;48.738;9.092;2022-07-24T03:17:25;10.47;;;9.57;;
23302;SDS011;11820;48.738;9.092;2022-07-24T03:19:50;10.03;;;9.13;;
23302;SDS011;11820;48.738;9.092;2022-07-24T03:22:16;10.20;;;9.20;;
23302;SDS011;11820;48.738;9.092;2022-07-24T03:24:41;10.70;;;9.57;;
23302;SDS011;11820;48.738;9.092;2022-07-24T03:27:06;10.13;;;9.20;;
23302;SDS011;11820;48.738;9.092;2022-07-24T03:29:32;10.67;;;9.57;;
23302;SDS011;11820;48.738;9.092;2022-07-24T03:31:57;10.17;;;9.17;;
23302;SDS011;11820;48.738;9.092;2022-07-24T03:34:23;10.10;;;9.20;;
23302;SDS011;11820;48.738;9.092;2022-07-24T03:36:48;9.50;;;8.70;;
23302;SDS011;11820;48.738;9.092;2022-07-24T03:39:13;9.67;;;8.77;;
23302;SDS011;11820;48.738;9.092;2022-07-24T03:41:39;9.40;;;8.60;;
23302;SDS011;11820;48.738;9.092;2022-07-24T03:44:04;9.87;;;8.90;;
23302;SDS011;11820;48.738;9.092;2022-07-24T03:46:30;8.93;;;8.13;;
23302;SDS011;11820;48.738;9.092;2022-07-24T03:48:56;9.40;;;8.57;;
23302;SDS011;11820;48.738;9.092;2022-07-24T03:51:21;8.07;;;7.43;;
23302;SDS011;11820;48.738;9.092;2022-07-24T03:53:47;11.70;;;9.17;;
23302;SDS011;11820;48.738;9.092;2022-07-24T03:56:13;10.40;;;9.40;;
23302;SDS011;11820;48.738;9.092;2022-07-24T03:58:38;9.50;;;8.70;;
23302;SDS011;11820;48.738;9.092;2022-07-24T04:01:04;9.40;;;8.53;;
23302;SDS011;11820;48.738;9.092;2022-07-24T04:03:29;9.37;;;8.57;;
23302;SDS011;11820;48.738;9.092;2022-07-24T04:05:55;9.60;;;8.77;;
23302;SDS011;11820;48.738;9.092;2022-07-24T04:08:20;9.00;;;8.27;;
23302;SDS011;11820;48.738;9.092;2022-07-24T04:10:45;9.87;;;8.97;;
23302;SDS011;11820;48.738;9.092;2022-07-24T04:13:11;9.27;;;8.57;;
23302;SDS011;11820;48.738;9.092;2022-07-24T04:15:36;9.50;;;8.60;;
23302;SDS011;11820;48.738;9.092;2022-07-24T04:18:02;9.97;;;8.97;;
23302;SDS011;11820;48.738;9.092;2022-07-24T04:20:27;8.97;;;8.27;;
23302;SDS011;11820;48.738;9.092;2022-07-24T04:22:53;9.53;;;8.73;;
23302;SDS011;11820;48.738;9.092;2022-07-24T04:25:18;8.13;;;7.40;;
23302;SDS011;11820;48.738;9.092;2022-07-24T04:27:44;9.63;;;8.60;;
23302;SDS011;11820;48.738;9.092;2022-07-24T04:30:10;9.33;;;8.47;;
23302;SDS011;11820;48.738;9.092;2022-07-24T04:32:36;9.13;;;8.30;;
23302;SDS011;11820;48.738;9.092;2022-07-24T04:35:03;9.57;;;8.63;;
23302;SDS011;11820;48.738;9.092;2022-07-24T04:37:29;8.27;;;7.67;;
23302;SDS011;11820;48.738;9.092;2022-07-24T04:39:54;9.80;;;7.97;;
23302;SDS011;11820;48.738;9.092;2022-07-24T04:42:19;9.17;;;8.37;;
23302;SDS011;11820;48.738;9.092;2022-07-24T04:44:45;8.97;;;8.10;;
23302;SDS011;11820;48.738;9.092;2022-07-24T04:47:10;9.30;;;8.50;;
23302;SDS011;11820;48.738;9.092;2022-07-24T04:49:35;8.90;;;8.00;;
23302;SDS011;11820;48.738;9.092;2022-07-24T04:52:01;9.00;;;8.20;;
23302;SDS011;11820;48.738;9.092;2022-07-24T04:54:26;8.63;;;7.77;;
23302;SDS011;11820;48.738;9.092;2022-07-24T04:56:52;9.17;;;8.23;;
23302;SDS011;11820;48.738;9.092;2022-07-24T04:59:17;8.13;;;7.43;;
23302;SDS011;11820;48.738;9.092;2022-07-24T05:01:42;7.97;;;7.33;;
23302;SDS011;11820;48.738;9.092;2022-07-24T05:04:08;8.40;;;7.60;;
23302;SDS011;11820;48.738;9.092;2022-07-24T05:06:33;8.37;;;7.67;;
23302;SDS011;11820;48.738;9.092;2022-07-24T05:08:58;8.40;;;7.70;;
23302;SDS011;11820;48.738;9.092;2022-07-24T05:11:24;8.83;;;8.03;;
23302;SDS011;11820;48.738;9.092;2022-07-24T05:13:49;9.20;;;8.33;;
23302;SDS011;11820;48.738;9.092;2022-07-24T05:16:14;9.90;;;8.60;;
23302;SDS011;11820;48.738;9.092;2022-07-24T05:18:40;8.37;;;7.57;;
23302;SDS011;11820;48.738;9.092;2022-07-24T05:21:05;8.80;;;7.90;;
23302;SDS011;11820;48.738;9.092;2022-07-24T05:23:30;8.87;;;8.07;;
23302;SDS011;11820;48.738;9.092;2022-07-24T05:25:56;9.13;;;8.43;;
23302;SDS011;11820;48.738;9.092;2022-07-24T05:28:21;8.33;;;7.53;;
23302;SDS011;11820;48.738;9.092;2022-07-24T05:30:46;9.40;;;8.43;;
23302;SDS011;11820;48.738;9.092;2022-07-24T05:33:12;8.77;;;7.80;;
23302;SDS011;11820;48.738;9.092;2022-07-24T05:35:37;8.80;;;8.07;;
23302;SDS011;11820;48.738;9.092;2022-07-24T05:38:02;8.87;;;8.00;;
23302;SDS011;11820;48.738;9.092;2022-07-24T05:40:28;7.80;;;7.20;;
23302;SDS011;11820;48.738;9.092;2022-07-24T05:42:53;8.37;;;7.57;;
23302;SDS011;11820;48.738;9.092;2022-07-24T05:45:19;8.77;;;7.97;;
23302;SDS011;11820;48.738;9.092;2022-07-24T05:47:44;8.03;;;7.43;;
23302;SDS011;11820;48.738;9.092;2022-07-24T05:50:10;8.50;;;7.60;;
23302;SDS011;11820;48.738;9.092;2022-07-24T05:52:37;8.57;;;7.87;;
23302;SDS011;11820;48.738;9.092;2022-07-24T05:55:03;8.77;;;8.07;;
23302;SDS011;11820;48.738;9.092;2022-07-24T05:57:30;8.60;;;7.80;;
23302;SDS011;11820;48.738;9.092;2022-07-24T05:59:55;7.30;;;6.60;;
23302;SDS011;11820;48.738;9.092;2022-07-24T06:02:20;8.27;;;7.57;;
23302;SDS011;11820;48.738;9.092;2022-07-24T06:04:46;7.73;;;7.00;;
23302;SDS011;11820;48.738;9.092;2022-07-24T06:07:11;8.50;;;7.60;;
23302;SDS011;11820;48.738;9.092;2022-07-24T06:09:37;8.30;;;7.50;;
23302;SDS011;11820;48.738;9.092;2022-07-24T06:12:03;7.53;;;6.83;;
23302;SDS011;11820;48.738;9.092;2022-07-24T06:14:29;8.77;;;7.97;;
23302;SDS011;11820;48.738;9.092;2022-07-24T06:16:55;7.87;;;7.10;;
23302;SDS011;11820;48.738;9.092;2022-07-24T06:19:21;8.50;;;7.70;;
23302;SDS011;11820;48.738;9.092;2022-07-24T06:21:46;7.50;;;6.90;;
23302;SDS011;11820;48.738;9.092;2022-07-24T06:24:11;8.03;;;7.27;;
23302;SDS011;11820;48.738;9.092;2022-07-24T06:26:37;8.03;;;7.37;;
23302;SDS011;11820;48.738;9.092;2022-07-24T06:29:02;7.50;;;6.80;;
23302;SDS011;11820;48.738;9.092;2022-07-24T06:31:27;7.70;;;7.10;;
23302;SDS011;11820;48.738;9.092;2022-07-24T06:33:53;6.93;;;6.33;;
23302;SDS011;11820;48.738;9.092;2022-07-24T06:36:18;7.23;;;6.63;;
23302;SDS011;11820;48.738;9.092;2022-07-24T06:38:43;7.60;;;6.90;;
23302;SDS011;11820;48.738;9.092;2022-07-24T06:41:09;7.80;;;6.37;;
23302;SDS011;11820;48.738;9.092;2022-07-24T06:43:34;7.53;;;6.07;;
23302;SDS011;11820;48.738;9.092;2022-07-24T06:45:59;6.83;;;6.20;;
23302;SDS011;11820;48.738;9.092;2022-07-24T06:48:25;6.47;;;5.83;;
23302;SDS011;11820;48.738;9.092;2022-07-24T06:50:50;7.83;;;6.73;;
23302;SDS011;11820;48.738;9.092;2022-07-24T06:53:16;6.47;;;5.87;;
23302;SDS011;11820;48.738;9.092;2022-07-24T06:55:41;7.10;;;6.43;;
23302;SDS011;11820;48.738;9.092;2022-07-24T06:58:06;6.83;;;6.23;;
23302;SDS011;11820;48.738;9.092;2022-07-24T07:00:32;6.60;;;6.03;;
23302;SDS011;11820;48.738;9.092;2022-07-24T07:02:57;6.33;;;5.73;;
23302;SDS011;11820;48.738;9.092;2022-07-24T07:05:22;6.47;;;5.50;;
23302;SDS011;11820;48.738;9.092;2022-07-24T07:07:49;7.00;;;6.40;;
23302;SDS011;11820;48.738;9.092;2022-07-24T07:10:14;7.73;;;5.67;;
23302;SDS011;11820;48.738;9.092;2022-07-24T07:12:40;6.73;;;6.13;;
23302;SDS011;11820;48.738;9.092;2022-07-24T07:15:05;11.53;;;6.60;;
23302;SDS011;11820;48.738;9.092;2022-07-24T07:17:31;7.30;;;6.60;;
23302;SDS011;11820;48.738;9.092;2022-07-24T07:19:56;7.70;;;6.73;;
23302;SDS011;11820;48.738;9.092;2022-07-24T07:22:22;6.87;;;6.17;;
23302;SDS011;11820;48.738;9.092;2022-07-24T07:24:47;7.43;;;6.60;;
23302;SDS011;11820;48.738;9.092;2022-07-24T07:27:12;7.33;;;6.63;;
23302;SDS011;11820;48.738;9.092;2022-07-24T07:29:38;7.13;;;6.37;;
23302;SDS011;11820;48.738;9.092;2022-07-24T07:32:03;6.67;;;6.00;;
23302;SDS011;11820;48.738;9.092;2022-07-24T07:34:29;6.40;;;5.80;;
23302;SDS011;11820;48.738;9.092;2022-07-24T07:36:54;6.60;;;6.10;;
23302;SDS011;11820;48.738;9.092;2022-07-24T07:39:19;6.87;;;6.17;;
23302;SDS011;11820;48.738;9.092;2022-07-24T07:41:45;6.77;;;6.10;;
23302;SDS011;11820;48.738;9.092;2022-07-24T07:44:10;6.77;;;5.97;;
23302;SDS011;11820;48.738;9.092;2022-07-24T07:46:36;6.30;;;5.80;;
23302;SDS011;11820;48.738;9.092;2022-07-24T07:49:01;7.20;;;6.60;;
23302;SDS011;11820;48.738;9.092;2022-07-24T07:51:27;7.60;;;6.80;;
23302;SDS011;11820;48.738;9.092;2022-07-24T07:53:52;7.40;;;6.73;;
23302;SDS011;11820;48.738;9.092;2022-07-24T07:56:18;7.20;;;6.50;;
23302;SDS011;11820;48.738;9.092;2022-07-24T07:58:43;7.40;;;6.80;;
23302;SDS011;11820;48.738;9.092;2022-07-24T08:01:08;7.60;;;6.80;;
23302;SDS011;11820;48.738;9.092;2022-07-24T08:03:34;6.67;;;5.90;;
23302;SDS011;11820;48.738;9.092;2022-07-24T08:05:59;7.80;;;6.90;;
23302;SDS011;11820;48.738;9.092;2022-07-24T08:08:25;7.33;;;6.70;;
23302;SDS011;11820;48.738;9.092;2022-07-24T08:10:50;7.10;;;6.60;;
23302;SDS011;11820;48.738;9.092;2022-07-24T08:13:16;7.03;;;6.43;;
23302;SDS011;11820;48.738;9.092;2022-07-24T08:15:43;7.07;;;6.37;;
23302;SDS011;11820;48.738;9.092;2022-07-24T08:18:08;7.03;;;6.00;;
23302;SDS011;11820;48.738;9.092;2022-07-24T08:20:34;6.53;;;6.03;;
23302;SDS011;11820;48.738;9.092;2022-07-24T08:22:59;7.80;;;7.10;;
23302;SDS011;11820;48.738;9.092;2022-07-24T08:25:25;7.97;;;7.17;;
23302;SDS011;11820;48.738;9.092;2022-07-24T08:27:51;7.57;;;5.73;;
23302;SDS011;11820;48.738;9.092;2022-07-24T08:30:17;7.00;;;6.30;;
23302;SDS011;11820;48.738;9.092;2022-07-24T08:32:42;7.53;;;6.83;;
23302;SDS011;11820;48.738;9.092;2022-07-24T08:35:08;7.13;;;6.27;;
23302;SDS011;11820;48.738;9.092;2022-07-24T08:37:35;6.93;;;6.33;;
23302;SDS011;11820;48.738;9.092;2022-07-24T08:40:02;7.10;;;6.50;;
23302;SDS011;11820;48.738;9.092;2022-07-24T08:42:29;7.73;;;6.93;;
23302;SDS011;11820;48.738;9.092;2022-07-24T08:44:54;7.80;;;6.80;;
23302;SDS011;11820;48.738;9.092;2022-07-24T08:47:20;7.27;;;6.67;;
23302;SDS011;11820;48.738;9.092;2022-07-24T08:49:46;7.43;;;6.70;;
23302;SDS011;11820;48.738;9.092;2022-07-24T08:52:13;7.40;;;6.70;;
23302;SDS011;11820;48.738;9.092;2022-07-24T08:54:40;7.23;;;6.53;;
23302;SDS011;11820;48.738;9.092;2022-07-24T08:57:06;7.50;;;6.80;;
23302;SDS011;11820;48.738;9.092;2022-07-24T08:59:31;7.10;;;6.50;;
23302;SDS011;11820;48.738;9.092;2022-07-24T09:01:57;7.70;;;6.30;;
23302;SDS011;11820;48.738;9.092;2022-07-24T09:04:39;7.37;;;6.67;;
23302;SDS011;11820;48.738;9.092;2022-07-24T09:07:13;7.60;;;6.67;;
23302;SDS011;11820;48.738;9.092;2022-07-24T09:09:40;8.13;;;7.07;;
23302;SDS011;11820;48.738;9.092;2022-07-24T09:14:33;7.83;;;6.30;;
23302;SDS011;11820;48.738;9.092;2022-07-24T09:17:01;7.03;;;6.43;;
23302;SDS011;11820;48.738;9.092;2022-07-24T09:19:31;7.60;;;6.80;;
23302;SDS011;11820;48.738;9.092;2022-07-24T09:22:09;7.57;;;6.90;;
23302;SDS011;11820;48.738;9.092;2022-07-24T09:24:35;7.23;;;6.63;;
23302;SDS011;11820;48.738;9.092;2022-07-24T09:27:00;7.07;;;6.47;;
23302;SDS011;11820;48.738;9.092;2022-07-24T09:29:26;8.00;;;7.20;;
23302;SDS011;11820;48.738;9.092;2022-07-24T09:31:58;7.37;;;6.67;;
23302;SDS011;11820;48.738;9.092;2022-07-24T09:34:26;7.43;;;6.67;;
23302;SDS011;11820;48.738;9.092;2022-07-24T09:39:24;6.83;;;6.23;;
23302;SDS011;11820;48.738;9.092;2022-07-24T09:41:54;7.93;;;6.50;;
23302;SDS011;11820;48.738;9.092;2022-07-24T09:44:21;7.10;;;6.40;;
23302;SDS011;11820;48.738;9.092;2022-07-24T09:46:53;9.80;;;7.20;;
23302;SDS011;11820;48.738;9.092;2022-07-24T09:49:29;7.80;;;7.10;;
23302;SDS011;11820;48.738;9.092;2022-07-24T09:54:31;7.03;;;6.43;;
23302;SDS011;11820;48.738;9.092;2022-07-24T09:59:50;7.93;;;7.13;;
23302;SDS011;11820;48.738;9.092;2022-07-24T10:02:19;6.73;;;6.10;;
23302;SDS011;11820;48.738;9.092;2022-07-24T10:04:46;6.87;;;6.27;;
23302;SDS011;11820;48.738;9.092;2022-07-24T10:07:14;6.47;;;5.97;;
23302;SDS011;11820;48.738;9.092;2022-07-24T10:09:43;7.07;;;6.37;;
23302;SDS011;11820;48.738;9.092;2022-07-24T10:12:21;7.30;;;6.60;;
23302;SDS011;11820;48.738;9.092;2022-07-24T10:14:48;7.37;;;5.97;;
23302;SDS011;11820;48.738;9.092;2022-07-24T10:17:17;6.50;;;6.00;;
23302;SDS011;11820;48.738;9.092;2022-07-24T10:19:44;7.27;;;6.57;;
23302;SDS011;11820;48.738;9.092;2022-07-24T10:22:12;6.80;;;6.20;;
23302;SDS011;11820;48.738;9.092;2022-07-24T10:24:48;6.90;;;6.30;;
23302;SDS011;11820;48.738;9.092;2022-07-24T10:27:26;6.63;;;6.13;;
23302;SDS011;11820;48.738;9.092;2022-07-24T10:29:58;12.67;;;7.40;;
23302;SDS011;11820;48.738;9.092;2022-07-24T10:32:26;7.27;;;6.67;;
23302;SDS011;11820;48.738;9.092;2022-07-24T10:48:34;7.33;;;6.73;;
23302;SDS011;11820;48.738;9.092;2022-07-24T10:51:05;7.70;;;7.00;;
23302;SDS011;11820;48.738;9.092;2022-07-24T10:53:45;7.17;;;6.60;;
23302;SDS011;11820;48.738;9.092;2022-07-24T10:59:05;8.27;;;7.47;;
23302;SDS011;11820;48.738;9.092;2022-07-24T11:01:42;7.47;;;6.83;;
23302;SDS011;11820;48.738;9.092;2022-07-24T11:09:14;7.80;;;7.10;;
23302;SDS011;11820;48.738;9.092;2022-07-24T11:14:18;7.83;;;7.13;;
23302;SDS011;11820;48.738;9.092;2022-07-24T11:16:47;7.53;;;6.83;;
23302;SDS011;11820;48.738;9.092;2022-07-24T11:21:45;6.73;;;5.87;;
23302;SDS011;11820;48.738;9.092;2022-07-24T11:26:57;7.20;;;6.60;;
23302;SDS011;11820;48.738;9.092;2022-07-24T11:34:30;6.70;;;6.00;;
23302;SDS011;11820;48.738;9.092;2022-07-24T11:36:58;6.97;;;6.37;;
23302;SDS011;11820;48.738;9.092;2022-07-24T11:39:32;6.63;;;6.03;;
23302;SDS011;11820;48.738;9.092;2022-07-24T11:42:00;6.80;;;6.20;;
23302;SDS011;11820;48.738;9.092;2022-07-24T11:44:37;8.10;;;6.43;;
23302;SDS011;11820;48.738;9.092;2022-07-24T11:47:13;6.32;;;5.82;;
23302;SDS011;11820;48.738;9.092;2022-07-24T11:49:50;6.63;;;5.65;;
23302;SDS011;11820;48.738;9.092;2022-07-24T11:52:28;6.78;;;6.28;;
23302;SDS011;11820;48.738;9.092;2022-07-24T11:54:58;6.95;;;6.35;;
23302;SDS011;11820;48.738;9.092;2022-07-24T11:57:26;7.03;;;6.18;;
23302;SDS011;11820;48.738;9.092;2022-07-24T11:59:56;8.10;;;6.05;;
23302;SDS011;11820;48.738;9.092;2022-07-24T12:02:22;7.28;;;6.45;;
23302;SDS011;11820;48.738;9.092;2022-07-24T12:04:48;6.53;;;5.93;;
23302;SDS011;11820;48.738;9.092;2022-07-24T12:07:16;6.25;;;5.78;;
23302;SDS011;11820;48.738;9.092;2022-07-24T12:09:48;6.18;;;5.60;;
23302;SDS011;11820;48.738;9.092;2022-07-24T12:14:52;6.40;;;5.90;;
23302;SDS011;11820;48.738;9.092;2022-07-24T12:17:24;6.35;;;5.78;;
23302;SDS011;11820;48.738;9.092;2022-07-24T12:19:50;6.82;;;5.82;;
23302;SDS011;11820;48.738;9.092;2022-07-24T12:22:17;7.18;;;5.57;;
23302;SDS011;11820;48.738;9.092;2022-07-24T12:24:43;6.93;;;6.37;;
23302;SDS011;11820;48.738;9.092;2022-07-24T12:27:08;6.50;;;6.00;;
23302;SDS011;11820;48.738;9.092;2022-07-24T12:29:40;6.37;;;5.80;;
23302;SDS011;11820;48.738;9.092;2022-07-24T12:34:43;6.17;;;5.67;;
23302;SDS011;11820;48.738;9.092;2022-07-24T12:37:17;6.23;;;5.63;;
23302;SDS011;11820;48.738;9.092;2022-07-24T12:39:50;6.10;;;5.60;;
23302;SDS011;11820;48.738;9.092;2022-07-24T12:42:17;6.78;;;5.88;;
23302;SDS011;11820;48.738;9.092;2022-07-24T12:44:53;6.90;;;6.30;;
23302;SDS011;11820;48.738;9.092;2022-07-24T12:47:18;7.32;;;6.63;;
23302;SDS011;11820;48.738;9.092;2022-07-24T12:49:44;6.80;;;6.10;;
23302;SDS011;11820;48.738;9.092;2022-07-24T12:52:18;7.38;;;6.57;;
23302;SDS011;11820;48.738;9.092;2022-07-24T12:54:45;7.35;;;6.65;;
23302;SDS011;11820;48.738;9.092;2022-07-24T12:57:12;7.00;;;6.20;;
23302;SDS011;11820;48.738;9.092;2022-07-24T12:59:39;7.35;;;6.80;;
23302;SDS011;11820;48.738;9.092;2022-07-24T13:02:16;10.63;;;9.63;;
23302;SDS011;11820;48.738;9.092;2022-07-24T13:04:42;6.95;;;6.40;;
23302;SDS011;11820;48.738;9.092;2022-07-24T13:07:15;6.82;;;6.28;;
23302;SDS011;11820;48.738;9.092;2022-07-24T13:09:43;6.25;;;5.75;;
23302;SDS011;11820;48.738;9.092;2022-07-24T13:12:08;6.35;;;5.85;;
23302;SDS011;11820;48.738;9.092;2022-07-24T13:14:35;6.65;;;6.15;;
23302;SDS011;11820;48.738;9.092;2022-07-24T13:17:21;7.50;;;6.80;;
23302;SDS011;11820;48.738;9.092;2022-07-24T13:19:49;8.00;;;6.20;;
23302;SDS011;11820;48.738;9.092;2022-07-24T13:22:17;10.02;;;6.55;;
23302;SDS011;11820;48.738;9.092;2022-07-24T13:24:43;6.25;;;5.60;;
23302;SDS011;11820;48.738;9.092;2022-07-24T13:27:10;6.80;;;6.20;;
23302;SDS011;11820;48.738;9.092;2022-07-24T13:29:38;5.68;;;5.18;;
23302;SDS011;11820;48.738;9.092;2022-07-24T13:32:04;6.50;;;5.90;;
23302;SDS011;11820;48.738;9.092;2022-07-24T13:34:30;6.97;;;5.05;;
23302;SDS011;11820;48.738;9.092;2022-07-24T13:36:55;6.72;;;6.10;;
23302;SDS011;11820;48.738;9.092;2022-07-24T13:39:21;6.47;;;5.47;;
23302;SDS011;11820;48.738;9.092;2022-07-24T13:41:47;5.80;;;5.38;;
23302;SDS011;11820;48.738;9.092;2022-07-24T13:44:13;6.68;;;5.72;;
23302;SDS011;11820;48.738;9.092;2022-07-24T13:46:38;5.60;;;5.20;;
23302;SDS011;11820;48.738;9.092;2022-07-24T13:49:04;6.50;;;5.90;;
23302;SDS011;11820;48.738;9.092;2022-07-24T13:51:31;5.75;;;5.25;;
23302;SDS011;11820;48.738;9.092;2022-07-24T13:53:57;6.25;;;5.65;;
23302;SDS011;11820;48.738;9.092;2022-07-24T13:56:24;6.38;;;5.78;;
23302;SDS011;11820;48.738;9.092;2022-07-24T13:58:50;5.85;;;5.35;;
23302;SDS011;11820;48.738;9.092;2022-07-24T14:01:15;5.40;;;5.00;;
23302;SDS011;11820;48.738;9.092;2022-07-24T14:03:42;5.00;;;4.60;;
23302;SDS011;11820;48.738;9.092;2022-07-24T14:06:08;5.90;;;5.40;;
23302;SDS011;11820;48.738;9.092;2022-07-24T14:08:35;6.18;;;5.53;;
23302;SDS011;11820;48.738;9.092;2022-07-24T14:11:01;5.63;;;5.03;;
23302;SDS011;11820;48.738;9.092;2022-07-24T14:13:26;5.70;;;5.30;;
23302;SDS011;11820;48.738;9.092;2022-07-24T14:15:52;5.13;;;4.72;;
23302;SDS011;11820;48.738;9.092;2022-07-24T14:18:17;5.82;;;5.32;;
23302;SDS011;11820;48.738;9.092;2022-07-24T14:20:43;6.00;;;5.50;;
23302;SDS011;11820;48.738;9.092;2022-07-24T14:23:08;5.60;;;5.20;;
23302;SDS011;11820;48.738;9.092;2022-07-24T14:25:34;5.75;;;5.25;;
23302;SDS011;11820;48.738;9.092;2022-07-24T14:27:59;6.32;;;5.72;;
23302;SDS011;11820;48.738;9.092;2022-07-24T14:30:24;5.15;;;4.75;;
23302;SDS011;11820;48.738;9.092;2022-07-24T14:32:50;5.63;;;5.00;;
23302;SDS011;11820;48.738;9.092;2022-07-24T14:35:15;5.32;;;4.93;;
23302;SDS011;11820;48.738;9.092;2022-07-24T14:37:41;7.00;;;5.95;;
23302;SDS011;11820;48.738;9.092;2022-07-24T14:40:07;5.75;;;5.25;;
23302;SDS011;11820;48.738;9.092;2022-07-24T14:42:33;6.00;;;5.50;;
23302;SDS011;11820;48.738;9.092;2022-07-24T14:44:59;5.97;;;5.47;;
23302;SDS011;11820;48.738;9.092;2022-07-24T14:47:24;5.40;;;5.00;;
23302;SDS011;11820;48.738;9.092;2022-07-24T14:49:50;6.22;;;5.72;;
23302;SDS011;11820;48.738;9.092;2022-07-24T14:52:15;6.10;;;5.57;;
23302;SDS011;11820;48.738;9.092;2022-07-24T14:54:43;6.07;;;5.40;;
23302;SDS011;11820;48.738;9.092;2022-07-24T14:57:11;6.00;;;5.50;;
23302;SDS011;11820;48.738;9.092;2022-07-24T14:59:37;5.75;;;5.25;;
23302;SDS011;11820;48.738;9.092;2022-07-24T15:02:03;5.60;;;5.10;;
23302;SDS011;11820;48.738;9.092;2022-07-24T15:04:28;5.82;;;5.20;;
23302;SDS011;11820;48.738;9.092;2022-07-24T15:06:53;5.32;;;4.93;;
23302;SDS011;11820;48.738;9.092;2022-07-24T15:09:19;4.82;;;4.53;;
23302;SDS011;11820;48.738;9.092;2022-07-24T15:11:44;4.97;;;4.45;;
23302;SDS011;11820;48.738;9.092;2022-07-24T15:14:09;5.28;;;4.88;;
23302;SDS011;11820;48.738;9.092;2022-07-24T15:16:35;5.13;;;4.72;;
23302;SDS011;11820;48.738;9.092;2022-07-24T15:19:00;5.78;;;5.30;;
23302;SDS011;11820;48.738;9.092;2022-07-24T15:21:25;4.80;;;4.38;;
23302;SDS011;11820;48.738;9.092;2022-07-24T15:23:51;5.95;;;5.55;;
23302;SDS011;11820;48.738;9.092;2022-07-24T15:26:16;5.57;;;5.07;;
23302;SDS011;11820;48.738;9.092;2022-07-24T15:28:41;5.68;;;5.28;;
23302;SDS011;11820;48.738;9.092;2022-07-24T15:31:07;5.70;;;5.20;;
23302;SDS011;11820;48.738;9.092;2022-07-24T15:33:32;5.22;;;4.78;;
23302;SDS011;11820;48.738;9.092;2022-07-24T15:35:58;5.53;;;5.10;;